createdAt,value
2022-09-27T00:00:27.416Z,3.20
2022-09-27T00:01:02.935Z,0.00
2022-09-27T00:01:38.493Z,3.20
2022-09-27T00:02:13.735Z,0.80
2022-09-27T00:02:48.924Z,1.60
2022-09-27T00:03:23.907Z,1.60
2022-09-27T00:03:59.092Z,0.80
2022-09-27T00:04:34.484Z,1.60
2022-09-27T00:05:09.979Z,0.80
2022-09-27T00:05:45.163Z,0.00
2022-09-27T00:06:20.365Z,0.00
2022-09-27T00:06:55.370Z,1.60
2022-09-27T00:07:30.771Z,7.20
2022-09-27T00:08:06.158Z,3.20
2022-09-27T00:08:41.368Z,0.00
2022-09-27T00:09:16.695Z,0.00
2022-09-27T00:09:51.947Z,1.60
2022-09-27T00:10:27.145Z,3.20
2022-09-27T00:11:02.555Z,0.80
2022-09-27T00:11:37.500Z,0.80
2022-09-27T00:12:12.584Z,0.00
2022-09-27T00:12:47.692Z,0.80
2022-09-27T00:13:22.889Z,0.80
2022-09-27T00:13:58.416Z,0.00
2022-09-27T00:14:33.808Z,0.80
2022-09-27T00:15:09.124Z,6.40
2022-09-27T00:15:44.444Z,2.40
2022-09-27T00:16:19.571Z,4.00
2022-09-27T00:16:54.871Z,6.40
2022-09-27T00:17:30.248Z,4.00
2022-09-27T00:18:05.841Z,0.80
2022-09-27T00:18:41.326Z,0.80
2022-09-27T00:19:16.736Z,6.40
2022-09-27T00:19:51.829Z,2.40
2022-09-27T00:20:26.829Z,1.60
2022-09-27T00:21:01.931Z,1.60
2022-09-27T00:21:37.238Z,0.80
2022-09-27T00:22:12.618Z,4.80
2022-09-27T00:22:48.111Z,5.60
2022-09-27T00:23:23.415Z,1.60
2022-09-27T00:23:58.923Z,1.60
2022-09-27T00:24:34.336Z,4.80
2022-09-27T00:25:09.315Z,1.60
2022-09-27T00:25:44.309Z,0.80
2022-09-27T00:26:19.709Z,4.00
2022-09-27T00:26:54.794Z,2.40
2022-09-27T00:27:29.802Z,1.60
2022-09-27T00:28:04.998Z,2.40
2022-09-27T00:28:40.394Z,1.60
2022-09-27T00:29:15.752Z,3.20
2022-09-27T00:29:50.991Z,0.80
2022-09-27T00:30:26.083Z,0.00
2022-09-27T00:31:01.352Z,5.60
2022-09-27T00:31:36.761Z,1.60
2022-09-27T00:32:11.808Z,0.00
2022-09-27T00:32:47.399Z,0.80
2022-09-27T00:33:22.483Z,1.60
2022-09-27T00:33:57.589Z,9.60
2022-09-27T00:34:32.885Z,0.80
2022-09-27T00:35:07.976Z,0.00
2022-09-27T00:35:43.390Z,2.40
2022-09-27T00:36:18.568Z,0.80
2022-09-27T00:36:53.679Z,0.00
2022-09-27T00:37:28.964Z,1.60
2022-09-27T00:38:04.454Z,0.80
2022-09-27T00:38:39.728Z,0.80
2022-09-27T00:39:15.185Z,0.00
2022-09-27T00:39:50.131Z,4.80
2022-09-27T00:40:25.282Z,5.60
2022-09-27T00:41:00.393Z,1.60
2022-09-27T00:41:35.543Z,4.80
2022-09-27T00:42:10.849Z,3.20
2022-09-27T00:42:45.956Z,5.60
2022-09-27T00:43:20.970Z,1.60
2022-09-27T00:43:55.943Z,1.60
2022-09-27T00:44:31.250Z,5.60
2022-09-27T00:45:06.354Z,8.80
2022-09-27T00:45:41.639Z,1.60
2022-09-27T00:46:16.788Z,4.80
2022-09-27T00:46:52.054Z,0.00
2022-09-27T00:47:27.574Z,0.00
2022-09-27T00:48:02.666Z,0.00
2022-09-27T00:48:37.871Z,1.60
2022-09-27T00:49:13.515Z,1.60
2022-09-27T00:49:48.679Z,1.60
2022-09-27T00:50:23.999Z,0.80
2022-09-27T00:50:59.294Z,0.80
2022-09-27T00:51:34.527Z,0.00
2022-09-27T00:52:09.809Z,3.20
2022-09-27T00:52:44.706Z,1.60
2022-09-27T00:53:20.014Z,1.60
2022-09-27T00:53:55.327Z,0.80
2022-09-27T00:54:30.752Z,2.40
2022-09-27T00:55:05.658Z,2.40
2022-09-27T00:55:40.754Z,0.00
2022-09-27T00:56:16.055Z,1.60
2022-09-27T00:56:51.166Z,1.60
2022-09-27T00:57:26.272Z,2.40
2022-09-27T00:58:01.740Z,2.40
2022-09-27T00:58:36.923Z,1.60
2022-09-27T00:59:12.132Z,1.60
2022-09-27T00:59:47.322Z,7.20
2022-09-27T01:00:22.526Z,4.80
2022-09-27T01:00:58.001Z,8.00
2022-09-27T01:01:33.306Z,5.60
2022-09-27T01:02:08.378Z,4.00
2022-09-27T01:02:43.873Z,3.20
2022-09-27T01:03:18.837Z,6.40
2022-09-27T01:03:53.941Z,5.60
2022-09-27T01:04:28.936Z,5.60
2022-09-27T01:05:03.958Z,8.00
2022-09-27T01:05:39.257Z,6.40
2022-09-27T01:06:14.371Z,1.60
2022-09-27T01:06:49.660Z,1.60
2022-09-27T01:07:24.751Z,4.00
2022-09-27T01:08:00.248Z,2.40
2022-09-27T01:08:35.644Z,4.00
2022-09-27T01:09:10.730Z,2.40
2022-09-27T01:09:45.561Z,2.40
2022-09-27T01:10:20.668Z,4.00
2022-09-27T01:10:55.870Z,4.00
2022-09-27T01:11:31.503Z,2.40
2022-09-27T01:12:06.697Z,4.80
2022-09-27T01:12:41.996Z,8.00
2022-09-27T01:13:17.177Z,1.60
2022-09-27T01:13:52.700Z,2.40
2022-09-27T01:14:28.012Z,0.80
2022-09-27T01:15:03.126Z,1.60
2022-09-27T01:15:38.367Z,1.60
2022-09-27T01:16:13.467Z,3.20
2022-09-27T01:16:48.936Z,2.40
2022-09-27T01:17:24.118Z,2.40
2022-09-27T01:17:59.346Z,4.00
2022-09-27T01:18:34.642Z,3.20
2022-09-27T01:19:11.268Z,5.60
2022-09-27T01:19:46.624Z,5.60
2022-09-27T01:20:21.921Z,9.61
2022-09-27T01:20:57.410Z,3.20
2022-09-27T01:21:32.539Z,0.80
2022-09-27T01:22:07.677Z,4.00
2022-09-27T01:22:43.064Z,4.00
2022-09-27T01:23:18.456Z,2.40
2022-09-27T01:23:53.458Z,3.20
2022-09-27T01:24:28.778Z,3.20
2022-09-27T01:25:03.984Z,3.20
2022-09-27T01:25:39.155Z,2.40
2022-09-27T01:26:14.448Z,7.20
2022-09-27T01:26:50.267Z,8.00
2022-09-27T01:27:25.447Z,4.00
2022-09-27T01:28:00.637Z,0.00
2022-09-27T01:28:35.541Z,4.00
2022-09-27T01:29:10.784Z,7.20
2022-09-27T01:29:46.144Z,3.20
2022-09-27T01:30:21.159Z,3.20
2022-09-27T01:30:56.268Z,7.20
2022-09-27T01:31:31.361Z,1.60
2022-09-27T01:32:06.602Z,8.00
2022-09-27T01:32:42.052Z,8.00
2022-09-27T01:33:17.105Z,3.20
2022-09-27T01:33:52.224Z,8.00
2022-09-27T01:34:27.533Z,5.60
2022-09-27T01:35:03.035Z,7.20
2022-09-27T01:35:38.337Z,8.00
2022-09-27T01:36:13.741Z,6.40
2022-09-27T01:36:48.856Z,11.21
2022-09-27T01:37:23.942Z,2.40
2022-09-27T01:37:59.161Z,0.80
2022-09-27T01:38:34.679Z,0.80
2022-09-27T01:39:10.179Z,8.80
2022-09-27T01:39:45.498Z,4.00
2022-09-27T01:40:20.741Z,7.20
2022-09-27T01:40:55.933Z,6.40
2022-09-27T01:41:31.100Z,5.60
2022-09-27T01:42:07.664Z,3.20
2022-09-27T01:42:41.434Z,4.80
2022-09-27T01:43:16.751Z,8.00
2022-09-27T01:43:51.978Z,8.00
2022-09-27T01:44:27.285Z,10.41
2022-09-27T01:45:02.283Z,2.40
2022-09-27T01:45:37.496Z,5.60
2022-09-27T01:46:12.972Z,7.20
2022-09-27T01:46:48.512Z,2.40
2022-09-27T01:47:23.714Z,3.20
2022-09-27T01:47:58.824Z,2.40
2022-09-27T01:48:33.918Z,4.80
2022-09-27T01:49:08.928Z,7.20
2022-09-27T01:49:44.089Z,4.80
2022-09-27T01:50:19.399Z,10.40
2022-09-27T01:50:54.599Z,6.40
2022-09-27T01:51:30.227Z,8.00
2022-09-27T01:52:05.398Z,5.60
2022-09-27T01:52:40.606Z,8.00
2022-09-27T01:53:15.742Z,5.60
2022-09-27T01:53:50.830Z,5.60
2022-09-27T01:54:26.139Z,1.60
2022-09-27T01:55:01.334Z,2.40
2022-09-27T01:55:36.359Z,1.60
2022-09-27T01:56:11.542Z,5.60
2022-09-27T01:56:46.655Z,4.00
2022-09-27T01:57:21.666Z,1.60
2022-09-27T01:57:56.875Z,6.40
2022-09-27T01:58:32.140Z,4.80
2022-09-27T01:59:07.130Z,0.80
2022-09-27T01:59:42.355Z,3.20
2022-09-27T02:00:17.841Z,4.80
2022-09-27T02:00:52.950Z,4.00
2022-09-27T02:01:28.355Z,4.00
2022-09-27T02:02:03.358Z,4.00
2022-09-27T02:02:39.194Z,1.60
2022-09-27T02:03:14.343Z,3.20
2022-09-27T02:03:49.451Z,7.20
2022-09-27T02:04:24.381Z,6.40
2022-09-27T02:04:59.495Z,5.60
2022-09-27T02:05:34.904Z,4.80
2022-09-27T02:06:11.686Z,7.20
2022-09-27T02:06:44.989Z,5.60
2022-09-27T02:07:20.215Z,5.60
2022-09-27T02:07:55.309Z,0.00
2022-09-27T02:08:30.514Z,8.00
2022-09-27T02:09:05.508Z,8.00
2022-09-27T02:09:40.813Z,4.80
2022-09-27T02:10:15.822Z,7.20
2022-09-27T02:10:51.126Z,5.60
2022-09-27T02:11:26.256Z,5.60
2022-09-27T02:12:01.445Z,3.20
2022-09-27T02:12:36.508Z,8.00
2022-09-27T02:13:11.714Z,4.00
2022-09-27T02:13:47.011Z,4.00
2022-09-27T02:14:22.405Z,5.60
2022-09-27T02:14:57.520Z,6.40
2022-09-27T02:15:32.620Z,6.40
2022-09-27T02:16:07.925Z,4.00
2022-09-27T02:16:42.803Z,5.60
2022-09-27T02:17:18.212Z,7.20
2022-09-27T02:17:53.517Z,4.80
2022-09-27T02:18:28.720Z,0.00
2022-09-27T02:19:04.031Z,1.60
2022-09-27T02:19:39.066Z,0.80
2022-09-27T02:20:13.942Z,7.20
2022-09-27T02:20:49.460Z,6.40
2022-09-27T02:21:24.573Z,4.80
2022-09-27T02:21:59.676Z,5.60
2022-09-27T02:22:34.902Z,0.80
2022-09-27T02:23:10.011Z,5.60
2022-09-27T02:23:45.213Z,4.00
2022-09-27T02:24:20.411Z,3.20
2022-09-27T02:24:55.601Z,4.00
2022-09-27T02:25:30.803Z,6.41
2022-09-27T02:26:06.005Z,6.40
2022-09-27T02:26:41.207Z,1.60
2022-09-27T02:27:16.460Z,6.40
2022-09-27T02:27:51.964Z,5.60
2022-09-27T02:28:27.062Z,4.00
2022-09-27T02:29:02.580Z,3.20
2022-09-27T02:29:37.567Z,8.80
2022-09-27T02:30:13.175Z,7.21
2022-09-27T02:30:48.306Z,2.40
2022-09-27T02:31:23.228Z,6.40
2022-09-27T02:31:58.466Z,6.40
2022-09-27T02:32:33.878Z,5.60
2022-09-27T02:33:08.791Z,3.20
2022-09-27T02:33:44.172Z,0.80
2022-09-27T02:34:19.282Z,1.60
2022-09-27T02:34:54.444Z,7.20
2022-09-27T02:35:29.467Z,5.60
2022-09-27T02:36:04.561Z,7.20
2022-09-27T02:36:39.884Z,12.01
2022-09-27T02:37:15.106Z,6.40
2022-09-27T02:37:50.301Z,3.20
2022-09-27T02:38:25.411Z,2.40
2022-09-27T02:39:00.587Z,4.00
2022-09-27T02:39:36.094Z,0.80
2022-09-27T02:40:11.280Z,2.40
2022-09-27T02:40:47.067Z,8.00
2022-09-27T02:41:22.291Z,7.20
2022-09-27T02:41:57.405Z,1.60
2022-09-27T02:42:32.614Z,4.80
2022-09-27T02:43:08.013Z,5.60
2022-09-27T02:43:43.326Z,5.60
2022-09-27T02:44:18.526Z,3.20
2022-09-27T02:44:53.541Z,2.40
2022-09-27T02:45:28.860Z,6.40
2022-09-27T02:46:04.265Z,6.40
2022-09-27T02:46:39.533Z,4.80
2022-09-27T02:47:14.834Z,4.00
2022-09-27T02:47:49.942Z,5.60
2022-09-27T02:48:25.021Z,4.00
2022-09-27T02:49:00.322Z,5.60
2022-09-27T02:49:35.642Z,8.81
2022-09-27T02:50:10.839Z,6.40
2022-09-27T02:50:46.143Z,7.20
2022-09-27T02:51:21.968Z,5.60
2022-09-27T02:51:57.077Z,5.60
2022-09-27T02:52:32.565Z,5.60
2022-09-27T02:53:07.663Z,4.80
2022-09-27T02:53:42.769Z,3.20
2022-09-27T02:54:18.070Z,5.60
2022-09-27T02:54:53.273Z,2.40
2022-09-27T02:55:28.376Z,2.40
2022-09-27T02:56:03.580Z,2.40
2022-09-27T02:56:38.790Z,4.80
2022-09-27T02:57:13.812Z,3.20
2022-09-27T02:57:49.119Z,6.40
2022-09-27T02:58:24.734Z,7.20
2022-09-27T02:58:59.712Z,4.80
2022-09-27T02:59:34.827Z,4.80
2022-09-27T03:00:10.062Z,4.00
2022-09-27T03:00:45.221Z,6.40
2022-09-27T03:01:20.686Z,7.20
2022-09-27T03:01:56.039Z,5.60
2022-09-27T03:02:31.243Z,2.40
2022-09-27T03:03:06.236Z,1.60
2022-09-27T03:03:41.299Z,2.40
2022-09-27T03:04:16.507Z,5.60
2022-09-27T03:04:51.733Z,4.00
2022-09-27T03:05:26.945Z,3.20
2022-09-27T03:06:02.460Z,8.80
2022-09-27T03:06:37.922Z,4.80
2022-09-27T03:07:13.233Z,8.80
2022-09-27T03:07:48.435Z,7.20
2022-09-27T03:08:23.727Z,2.40
2022-09-27T03:08:59.033Z,4.00
2022-09-27T03:09:34.525Z,3.20
2022-09-27T03:10:10.431Z,3.20
2022-09-27T03:10:45.640Z,2.40
2022-09-27T03:11:20.641Z,2.40
2022-09-27T03:11:55.632Z,8.01
2022-09-27T03:12:31.126Z,8.80
2022-09-27T03:13:06.410Z,7.20
2022-09-27T03:14:06.899Z,6.40
2022-09-27T03:14:17.533Z,1.60
2022-09-27T03:14:52.948Z,7.20
2022-09-27T03:15:28.370Z,8.00
2022-09-27T03:16:03.382Z,6.40
2022-09-27T03:16:38.608Z,8.00
2022-09-27T03:17:13.850Z,4.80
2022-09-27T03:17:48.882Z,7.20
2022-09-27T03:18:24.595Z,6.40
2022-09-27T03:19:00.092Z,8.80
2022-09-27T03:19:35.205Z,0.80
2022-09-27T03:20:10.505Z,6.40
2022-09-27T03:20:45.907Z,2.40
2022-09-27T03:21:21.330Z,9.60
2022-09-27T03:21:56.624Z,1.60
2022-09-27T03:22:31.846Z,8.01
2022-09-27T03:23:07.332Z,4.80
2022-09-27T03:23:42.465Z,4.00
2022-09-27T03:24:17.772Z,4.00
2022-09-27T03:24:52.809Z,4.80
2022-09-27T03:25:27.820Z,6.40
2022-09-27T03:26:03.246Z,2.40
2022-09-27T03:26:38.886Z,5.60
2022-09-27T03:27:14.088Z,6.40
2022-09-27T03:27:49.437Z,6.40
2022-09-27T03:28:24.625Z,4.80
2022-09-27T03:29:00.005Z,5.60
2022-09-27T03:29:35.329Z,4.80
2022-09-27T03:30:10.337Z,4.00
2022-09-27T03:30:45.820Z,2.40
2022-09-27T03:31:21.061Z,2.40
2022-09-27T03:31:56.443Z,3.20
2022-09-27T03:32:31.645Z,1.60
2022-09-27T03:33:07.041Z,9.60
2022-09-27T03:33:41.919Z,3.20
2022-09-27T03:34:17.136Z,5.60
2022-09-27T03:34:52.353Z,5.60
2022-09-27T03:35:27.452Z,4.80
2022-09-27T03:36:02.906Z,6.40
2022-09-27T03:36:38.124Z,7.20
2022-09-27T03:37:13.246Z,8.01
2022-09-27T03:37:48.889Z,5.60
2022-09-27T03:38:23.993Z,5.60
2022-09-27T03:38:59.093Z,6.40
2022-09-27T03:39:34.189Z,5.60
2022-09-27T03:40:09.522Z,4.00
2022-09-27T03:40:44.742Z,4.80
2022-09-27T03:41:19.835Z,4.80
2022-09-27T03:41:55.447Z,4.00
2022-09-27T03:42:30.655Z,2.40
2022-09-27T03:43:05.448Z,6.40
2022-09-27T03:43:40.867Z,4.00
2022-09-27T03:44:16.062Z,9.60
2022-09-27T03:44:51.266Z,3.20
2022-09-27T03:45:26.589Z,5.60
2022-09-27T03:46:01.545Z,6.40
2022-09-27T03:46:36.643Z,4.00
2022-09-27T03:47:11.596Z,6.40
2022-09-27T03:47:47.011Z,5.60
2022-09-27T03:48:27.159Z,7.20
2022-09-27T03:48:57.430Z,7.20
2022-09-27T03:49:32.827Z,6.40
2022-09-27T03:50:07.846Z,5.60
2022-09-27T03:50:42.974Z,4.00
2022-09-27T03:51:18.597Z,7.20
2022-09-27T03:51:53.631Z,3.20
2022-09-27T03:52:29.337Z,2.40
2022-09-27T03:53:04.752Z,8.80
2022-09-27T03:53:40.143Z,8.00
2022-09-27T03:54:15.366Z,7.20
2022-09-27T03:54:50.587Z,3.20
2022-09-27T03:55:25.601Z,7.21
2022-09-27T03:56:00.501Z,7.20
2022-09-27T03:56:35.523Z,8.80
2022-09-27T03:57:10.850Z,8.00
2022-09-27T03:57:46.061Z,6.40
2022-09-27T03:58:21.373Z,4.00
2022-09-27T03:58:56.573Z,5.60
2022-09-27T03:59:31.776Z,5.60
2022-09-27T04:00:06.809Z,6.40
2022-09-27T04:00:41.815Z,5.60
2022-09-27T04:01:17.085Z,8.00
2022-09-27T04:01:52.199Z,8.00
2022-09-27T04:02:27.733Z,6.40
2022-09-27T04:03:02.763Z,8.00
2022-09-27T04:03:38.212Z,4.00
2022-09-27T04:04:13.284Z,5.60
2022-09-27T04:04:48.495Z,4.80
2022-09-27T04:05:23.817Z,6.40
2022-09-27T04:05:58.953Z,7.20
2022-09-27T04:06:34.048Z,4.00
2022-09-27T04:07:09.529Z,11.21
2022-09-27T04:07:44.756Z,6.40
2022-09-27T04:08:19.766Z,8.80
2022-09-27T04:08:54.983Z,9.60
2022-09-27T04:09:30.017Z,4.80
2022-09-27T04:10:05.590Z,5.60
2022-09-27T04:10:40.910Z,8.00
2022-09-27T04:11:16.008Z,5.60
2022-09-27T04:11:51.131Z,4.80
2022-09-27T04:12:26.332Z,5.60
2022-09-27T04:13:01.663Z,3.20
2022-09-27T04:13:36.865Z,4.00
2022-09-27T04:14:11.967Z,4.80
2022-09-27T04:14:47.484Z,4.80
2022-09-27T04:15:22.680Z,11.21
2022-09-27T04:15:57.895Z,5.60
2022-09-27T04:16:33.065Z,5.60
2022-09-27T04:17:08.483Z,5.60
2022-09-27T04:17:43.525Z,0.80
2022-09-27T04:18:18.755Z,3.20
2022-09-27T04:18:54.068Z,3.20
2022-09-27T04:19:29.297Z,4.80
2022-09-27T04:20:04.310Z,10.40
2022-09-27T04:20:39.318Z,4.80
2022-09-27T04:21:14.511Z,5.60
2022-09-27T04:21:49.832Z,2.40
2022-09-27T04:22:25.029Z,2.40
2022-09-27T04:23:00.246Z,3.20
2022-09-27T04:23:35.334Z,4.00
2022-09-27T04:24:10.752Z,7.20
2022-09-27T04:24:46.164Z,9.60
2022-09-27T04:25:21.187Z,8.00
2022-09-27T04:25:56.413Z,4.00
2022-09-27T04:26:31.925Z,3.20
2022-09-27T04:27:07.042Z,3.20
2022-09-27T04:27:42.365Z,5.60
2022-09-27T04:28:17.766Z,8.80
2022-09-27T04:28:54.726Z,3.20
2022-09-27T04:29:28.278Z,8.80
2022-09-27T04:30:03.597Z,7.20
2022-09-27T04:30:38.735Z,11.21
2022-09-27T04:31:13.917Z,8.00
2022-09-27T04:31:49.190Z,4.80
2022-09-27T04:32:24.472Z,5.60
2022-09-27T04:32:59.681Z,6.40
2022-09-27T04:33:35.056Z,5.60
2022-09-27T04:34:09.945Z,8.00
2022-09-27T04:34:46.161Z,6.40
2022-09-27T04:35:20.737Z,7.21
2022-09-27T04:35:56.051Z,3.20
2022-09-27T04:36:31.477Z,4.00
2022-09-27T04:37:06.682Z,7.20
2022-09-27T04:37:42.193Z,11.21
2022-09-27T04:38:17.391Z,8.00
2022-09-27T04:38:52.780Z,4.80
2022-09-27T04:39:27.957Z,6.40
2022-09-27T04:40:03.505Z,4.80
2022-09-27T04:40:38.753Z,4.00
2022-09-27T04:41:13.900Z,6.40
2022-09-27T04:41:49.059Z,11.21
2022-09-27T04:42:24.357Z,9.61
2022-09-27T04:42:59.462Z,10.40
2022-09-27T04:43:34.974Z,9.60
2022-09-27T04:44:10.369Z,12.01
2022-09-27T04:44:45.385Z,8.00
2022-09-27T04:45:21.067Z,8.00
2022-09-27T04:45:56.507Z,9.60
2022-09-27T04:46:32.191Z,4.00
2022-09-27T04:47:42.394Z,3.20
2022-09-27T04:48:17.686Z,3.20
2022-09-27T04:48:53.290Z,7.20
2022-09-27T04:49:28.383Z,6.40
2022-09-27T04:50:03.606Z,7.20
2022-09-27T04:50:38.808Z,4.80
2022-09-27T04:51:13.992Z,6.40
2022-09-27T04:51:49.318Z,10.40
2022-09-27T04:52:24.607Z,5.60
2022-09-27T04:52:59.915Z,10.41
2022-09-27T04:53:35.109Z,5.60
2022-09-27T04:54:10.314Z,1.60
2022-09-27T04:54:45.528Z,5.60
2022-09-27T04:55:20.515Z,9.60
2022-09-27T04:55:55.610Z,8.80
2022-09-27T04:56:30.859Z,6.40
2022-09-27T04:57:06.172Z,8.80
2022-09-27T04:57:41.656Z,13.61
2022-09-27T04:58:16.720Z,4.80
2022-09-27T04:58:51.918Z,3.20
2022-09-27T04:59:26.819Z,5.60
2022-09-27T05:00:02.026Z,7.21
2022-09-27T05:00:37.365Z,9.60
2022-09-27T05:01:12.597Z,5.60
2022-09-27T05:01:47.724Z,11.21
2022-09-27T05:02:23.130Z,8.00
2022-09-27T05:02:58.355Z,8.00
2022-09-27T05:03:33.381Z,9.60
2022-09-27T05:04:08.577Z,7.20
2022-09-27T05:04:43.793Z,1.60
2022-09-27T05:05:19.114Z,3.20
2022-09-27T05:05:54.395Z,6.40
2022-09-27T05:06:29.510Z,9.60
2022-09-27T05:07:04.697Z,6.40
2022-09-27T05:07:40.228Z,7.20
2022-09-27T05:08:15.739Z,4.00
2022-09-27T05:08:51.214Z,2.40
2022-09-27T05:09:26.101Z,4.80
2022-09-27T05:10:01.668Z,4.80
2022-09-27T05:10:36.774Z,5.60
2022-09-27T05:11:12.056Z,4.00
2022-09-27T05:11:47.386Z,10.40
2022-09-27T05:12:22.675Z,12.01
2022-09-27T05:12:57.981Z,6.40
2022-09-27T05:13:33.394Z,9.60
2022-09-27T05:14:08.306Z,4.80
2022-09-27T05:14:43.508Z,6.40
2022-09-27T05:15:18.504Z,2.40
2022-09-27T05:15:54.044Z,5.60
2022-09-27T05:16:30.877Z,6.40
2022-09-27T05:17:03.780Z,6.40
2022-09-27T05:17:38.962Z,7.20
2022-09-27T05:18:14.153Z,8.00
2022-09-27T05:18:49.465Z,6.40
2022-09-27T05:19:24.391Z,6.40
2022-09-27T05:19:59.477Z,4.80
2022-09-27T05:20:34.487Z,0.80
2022-09-27T05:21:09.679Z,3.20
2022-09-27T05:21:44.915Z,11.21
2022-09-27T05:22:20.407Z,6.40
2022-09-27T05:22:55.719Z,7.20
2022-09-27T05:23:30.811Z,5.60
2022-09-27T05:24:06.558Z,8.00
2022-09-27T05:24:41.973Z,4.80
2022-09-27T05:25:16.856Z,5.60
2022-09-27T05:25:52.177Z,5.60
2022-09-27T05:26:27.572Z,7.20
2022-09-27T05:27:02.978Z,8.80
2022-09-27T05:27:38.427Z,8.80
2022-09-27T05:28:13.814Z,4.00
2022-09-27T05:28:49.398Z,3.20
2022-09-27T05:29:24.796Z,2.40
2022-09-27T05:30:00.014Z,6.40
2022-09-27T05:30:35.340Z,2.40
2022-09-27T05:31:10.362Z,4.80
2022-09-27T05:31:45.833Z,5.60
2022-09-27T05:32:21.518Z,4.00
2022-09-27T05:32:56.831Z,7.20
2022-09-27T05:33:32.334Z,4.80
2022-09-27T05:34:07.420Z,5.60
2022-09-27T05:34:42.729Z,6.40
2022-09-27T05:35:18.008Z,6.40
2022-09-27T05:35:53.225Z,15.21
2022-09-27T05:36:28.435Z,8.80
2022-09-27T05:37:03.843Z,8.01
2022-09-27T05:37:39.039Z,8.00
2022-09-27T05:38:14.536Z,15.21
2022-09-27T05:38:49.776Z,7.21
2022-09-27T05:39:25.184Z,6.40
2022-09-27T05:40:08.487Z,5.60
2022-09-27T05:40:42.706Z,9.60
2022-09-27T05:41:10.718Z,7.20
2022-09-27T05:41:46.193Z,4.80
2022-09-27T05:42:21.158Z,6.40
2022-09-27T05:42:56.561Z,4.00
2022-09-27T05:43:31.867Z,3.20
2022-09-27T05:44:07.263Z,0.80
2022-09-27T05:44:42.678Z,6.41
2022-09-27T05:45:17.971Z,7.20
2022-09-27T05:45:53.324Z,10.40
2022-09-27T05:46:28.446Z,8.00
2022-09-27T05:47:03.638Z,6.40
2022-09-27T05:47:38.752Z,4.00
2022-09-27T05:48:14.254Z,4.00
2022-09-27T05:48:49.556Z,6.40
2022-09-27T05:49:24.856Z,4.80
2022-09-27T05:49:59.967Z,7.20
2022-09-27T05:50:35.544Z,9.60
2022-09-27T05:51:11.034Z,8.80
2022-09-27T05:51:46.364Z,5.60
2022-09-27T05:52:22.823Z,2.40
2022-09-27T05:52:56.820Z,7.20
2022-09-27T05:53:31.809Z,8.00
2022-09-27T05:54:07.116Z,6.40
2022-09-27T05:54:42.133Z,11.21
2022-09-27T05:55:17.542Z,5.60
2022-09-27T05:55:52.641Z,8.00
2022-09-27T05:56:27.843Z,8.80
2022-09-27T05:57:03.290Z,9.60
2022-09-27T05:57:38.924Z,10.40
2022-09-27T05:58:14.010Z,5.60
2022-09-27T05:58:49.041Z,5.60
2022-09-27T05:59:24.544Z,8.80
2022-09-27T06:00:00.249Z,11.21
2022-09-27T06:00:35.642Z,7.20
2022-09-27T06:01:10.690Z,5.60
2022-09-27T06:01:45.815Z,2.40
2022-09-27T06:02:21.198Z,3.20
2022-09-27T06:02:56.467Z,6.40
2022-09-27T06:03:31.494Z,4.80
2022-09-27T06:04:07.084Z,4.80
2022-09-27T06:04:42.170Z,4.00
2022-09-27T06:05:17.373Z,3.20
2022-09-27T06:05:52.685Z,4.00
2022-09-27T06:06:27.787Z,6.40
2022-09-27T06:07:03.106Z,7.20
2022-09-27T06:07:38.310Z,8.80
2022-09-27T06:08:13.747Z,8.80
2022-09-27T06:08:48.986Z,7.20
2022-09-27T06:09:23.954Z,3.20
2022-09-27T06:09:59.321Z,6.40
2022-09-27T06:10:34.217Z,5.60
2022-09-27T06:11:09.426Z,8.00
2022-09-27T06:11:45.277Z,5.60
2022-09-27T06:12:19.767Z,8.80
2022-09-27T06:12:55.286Z,8.80
2022-09-27T06:13:30.783Z,6.40
2022-09-27T06:14:05.979Z,4.80
2022-09-27T06:14:40.973Z,2.40
2022-09-27T06:15:16.479Z,4.00
2022-09-27T06:15:51.587Z,7.20
2022-09-27T06:16:26.730Z,9.60
2022-09-27T06:17:02.256Z,6.40
2022-09-27T06:17:37.606Z,5.60
2022-09-27T06:18:12.626Z,9.60
2022-09-27T06:18:47.935Z,14.41
2022-09-27T06:19:23.129Z,10.40
2022-09-27T06:19:58.873Z,6.40
2022-09-27T06:20:34.079Z,5.60
2022-09-27T06:21:09.276Z,12.01
2022-09-27T06:21:44.592Z,7.20
2022-09-27T06:22:19.793Z,12.01
2022-09-27T06:22:55.110Z,10.40
2022-09-27T06:23:30.513Z,13.61
2022-09-27T06:24:05.832Z,8.00
2022-09-27T06:24:41.330Z,11.21
2022-09-27T06:25:16.741Z,12.81
2022-09-27T06:25:51.960Z,14.41
2022-09-27T06:26:27.178Z,8.80
2022-09-27T06:27:02.474Z,4.80
2022-09-27T06:27:38.073Z,3.20
2022-09-27T06:28:13.090Z,1.60
2022-09-27T06:28:48.188Z,3.20
2022-09-27T06:29:23.309Z,6.40
2022-09-27T06:29:58.534Z,9.60
2022-09-27T06:30:33.899Z,4.80
2022-09-27T06:31:09.092Z,3.20
2022-09-27T06:31:44.177Z,3.20
2022-09-27T06:32:19.485Z,10.40
2022-09-27T06:32:54.792Z,4.00
2022-09-27T06:33:29.995Z,6.40
2022-09-27T06:34:05.284Z,4.80
2022-09-27T06:34:40.683Z,4.80
2022-09-27T06:35:15.985Z,7.20
2022-09-27T06:35:51.284Z,10.40
2022-09-27T06:36:26.649Z,12.01
2022-09-27T06:37:02.047Z,6.40
2022-09-27T06:37:37.445Z,0.00
2022-09-27T06:38:12.648Z,6.40
2022-09-27T06:38:47.857Z,4.00
2022-09-27T06:39:23.069Z,4.80
2022-09-27T06:39:58.391Z,4.80
2022-09-27T06:40:33.422Z,8.80
2022-09-27T06:41:08.706Z,8.00
2022-09-27T06:41:43.707Z,5.60
2022-09-27T06:42:19.131Z,5.60
2022-09-27T06:42:54.455Z,12.01
2022-09-27T06:43:29.550Z,10.40
2022-09-27T06:44:04.674Z,6.40
2022-09-27T06:44:39.776Z,4.80
2022-09-27T06:45:14.999Z,4.80
2022-09-27T06:45:50.316Z,7.20
2022-09-27T06:46:25.825Z,4.80
2022-09-27T06:47:00.922Z,6.40
2022-09-27T06:47:36.053Z,5.60
2022-09-27T06:48:11.452Z,6.40
2022-09-27T06:48:46.543Z,10.40
2022-09-27T06:49:21.764Z,12.81
2022-09-27T06:49:57.084Z,9.60
2022-09-27T06:50:32.483Z,6.40
2022-09-27T06:51:07.982Z,6.40
2022-09-27T06:51:43.176Z,11.21
2022-09-27T06:52:18.428Z,15.21
2022-09-27T06:52:53.629Z,17.61
2022-09-27T06:53:28.848Z,12.01
2022-09-27T06:54:03.756Z,12.01
2022-09-27T06:54:39.146Z,6.40
2022-09-27T06:55:14.640Z,11.21
2022-09-27T06:55:49.923Z,7.20
2022-09-27T06:56:25.230Z,8.00
2022-09-27T06:57:02.538Z,7.20
2022-09-27T06:57:36.318Z,7.20
2022-09-27T06:58:11.740Z,13.61
2022-09-27T06:58:47.048Z,8.00
2022-09-27T06:59:22.170Z,8.81
2022-09-27T06:59:57.693Z,8.00
2022-09-27T07:00:33.100Z,12.81
2022-09-27T07:01:08.278Z,8.00
2022-09-27T07:01:43.821Z,8.80
2022-09-27T07:02:18.979Z,8.00
2022-09-27T07:02:54.146Z,6.40
2022-09-27T07:03:33.551Z,10.40
2022-09-27T07:04:04.561Z,13.61
2022-09-27T07:04:39.854Z,10.40
2022-09-27T07:05:15.272Z,10.40
2022-09-27T07:05:50.369Z,9.60
2022-09-27T07:06:25.580Z,16.81
2022-09-27T07:07:00.921Z,12.01
2022-09-27T07:07:36.323Z,16.81
2022-09-27T07:08:11.485Z,16.01
2022-09-27T07:08:46.893Z,14.41
2022-09-27T07:09:22.108Z,12.81
2022-09-27T07:09:57.435Z,9.60
2022-09-27T07:10:32.634Z,6.40
2022-09-27T07:11:07.648Z,13.61
2022-09-27T07:11:42.953Z,13.61
2022-09-27T07:12:18.072Z,19.21
2022-09-27T07:12:53.527Z,13.61
2022-09-27T07:13:28.758Z,12.01
2022-09-27T07:14:03.964Z,9.60
2022-09-27T07:14:39.065Z,9.60
2022-09-27T07:15:14.477Z,9.60
2022-09-27T07:15:49.365Z,10.40
2022-09-27T07:16:24.802Z,12.81
2022-09-27T07:17:00.199Z,15.21
2022-09-27T07:17:35.376Z,16.01
2022-09-27T07:18:10.613Z,11.21
2022-09-27T07:18:46.122Z,9.60
2022-09-27T07:19:21.234Z,5.60
2022-09-27T07:19:56.557Z,10.40
2022-09-27T07:20:31.961Z,13.61
2022-09-27T07:21:07.370Z,14.41
2022-09-27T07:21:42.676Z,6.40
2022-09-27T07:22:17.996Z,4.00
2022-09-27T07:22:53.184Z,6.40
2022-09-27T07:23:28.584Z,12.01
2022-09-27T07:24:04.031Z,12.01
2022-09-27T07:24:39.119Z,12.81
2022-09-27T07:25:14.149Z,6.40
2022-09-27T07:25:49.463Z,20.01
2022-09-27T07:26:24.778Z,15.21
2022-09-27T07:26:59.899Z,14.41
2022-09-27T07:27:38.140Z,10.40
2022-09-27T07:28:10.421Z,8.80
2022-09-27T07:28:45.403Z,8.81
2022-09-27T07:29:20.836Z,12.81
2022-09-27T07:29:55.961Z,12.01
2022-09-27T07:30:31.296Z,11.21
2022-09-27T07:31:06.628Z,12.01
2022-09-27T07:31:41.961Z,19.21
2022-09-27T07:32:17.563Z,16.01
2022-09-27T07:32:52.658Z,8.00
2022-09-27T07:33:28.389Z,16.81
2022-09-27T07:34:03.502Z,12.01
2022-09-27T07:34:38.717Z,13.61
2022-09-27T07:35:14.034Z,13.61
2022-09-27T07:35:49.349Z,8.80
2022-09-27T07:36:24.666Z,7.20
2022-09-27T07:36:59.686Z,8.00
2022-09-27T07:37:34.785Z,12.81
2022-09-27T07:38:10.017Z,14.41
2022-09-27T07:38:45.327Z,16.01
2022-09-27T07:39:20.626Z,13.61
2022-09-27T07:39:55.932Z,12.81
2022-09-27T07:40:31.176Z,10.40
2022-09-27T07:41:06.362Z,7.20
2022-09-27T07:41:41.490Z,6.40
2022-09-27T07:42:16.599Z,7.20
2022-09-27T07:42:52.215Z,20.01
2022-09-27T07:43:27.319Z,15.21
2022-09-27T07:44:02.397Z,10.40
2022-09-27T07:44:37.519Z,12.81
2022-09-27T07:45:12.787Z,13.61
2022-09-27T07:45:47.849Z,10.40
2022-09-27T07:46:22.894Z,14.41
2022-09-27T07:46:58.178Z,14.41
2022-09-27T07:47:33.509Z,10.40